createdAt,value
2018-03-08T00:02:28.436Z,4.20
2018-03-08T00:04:58.421Z,4.20
2018-03-08T00:07:28.356Z,4.50
2018-03-08T00:09:59.020Z,3.93
2018-03-08T00:12:30.213Z,3.47
2018-03-08T00:15:02.770Z,3.97
2018-03-08T00:17:32.700Z,3.90
2018-03-08T00:20:05.072Z,4.17
2018-03-08T00:22:34.932Z,3.77
2018-03-08T00:25:06.166Z,4.43
2018-03-08T00:27:35.826Z,4.70
2018-03-08T00:30:06.563Z,4.27
2018-03-08T00:32:36.871Z,4.23
2018-03-08T00:35:07.110Z,4.67
2018-03-08T00:37:37.381Z,4.00
2018-03-08T00:40:07.566Z,4.53
2018-03-08T00:42:37.496Z,4.00
2018-03-08T00:45:07.907Z,4.63
2018-03-08T00:47:37.360Z,4.33
2018-03-08T00:50:08.266Z,4.67
2018-03-08T00:52:37.856Z,4.20
2018-03-08T00:55:08.260Z,4.13
2018-03-08T00:57:38.545Z,4.13
2018-03-08T01:00:08.686Z,4.50
2018-03-08T01:02:38.146Z,4.30
2018-03-08T01:05:08.448Z,4.57
2018-03-08T01:07:38.019Z,4.97
2018-03-08T01:10:08.260Z,4.67
2018-03-08T01:12:38.193Z,4.60
2018-03-08T01:15:08.686Z,4.80
2018-03-08T01:17:38.709Z,4.60
2018-03-08T01:20:09.040Z,4.70
2018-03-08T01:22:39.085Z,5.00
2018-03-08T01:25:09.912Z,4.60
2018-03-08T01:27:39.960Z,4.70
2018-03-08T01:30:10.309Z,4.37
2018-03-08T01:32:40.789Z,4.60
2018-03-08T01:35:10.397Z,3.90
2018-03-08T01:37:40.280Z,4.17
2018-03-08T01:40:10.902Z,3.83
2018-03-08T01:42:40.810Z,4.00
2018-03-08T01:45:13.789Z,4.10
2018-03-08T01:47:43.528Z,4.27
2018-03-08T01:50:13.437Z,3.70
2018-03-08T01:52:43.474Z,3.40
2018-03-08T01:55:14.921Z,3.40
2018-03-08T01:57:45.200Z,3.10
2018-03-08T02:00:15.660Z,3.23
2018-03-08T02:02:45.708Z,3.10
2018-03-08T02:05:17.430Z,3.80
2018-03-08T02:07:49.607Z,3.90
2018-03-08T02:10:20.297Z,3.50
2018-03-08T02:13:09.874Z,4.23
2018-03-08T02:15:41.265Z,4.00
2018-03-08T02:18:12.473Z,4.13
2018-03-08T02:20:43.858Z,4.50
2018-03-08T02:23:14.315Z,4.03
2018-03-08T02:25:44.740Z,4.60
2018-03-08T02:28:15.171Z,4.00
2018-03-08T02:30:45.400Z,4.20
2018-03-08T02:33:15.286Z,5.03
2018-03-08T02:35:45.403Z,4.90
2018-03-08T02:38:15.454Z,4.30
2018-03-08T02:40:45.075Z,4.40
2018-03-08T02:43:15.654Z,4.03
2018-03-08T02:45:45.690Z,3.77
2018-03-08T02:48:16.205Z,4.20
2018-03-08T02:50:46.167Z,4.00
2018-03-08T02:53:15.859Z,4.23
2018-03-08T02:55:46.218Z,4.03
2018-03-08T02:58:16.297Z,3.80
2018-03-08T03:00:50.344Z,4.00
2018-03-08T03:03:21.150Z,3.97
2018-03-08T03:05:52.122Z,3.30
2018-03-08T03:08:23.507Z,3.60
2018-03-08T03:10:54.348Z,3.03
2018-03-08T03:13:24.731Z,3.60
2018-03-08T03:15:55.696Z,2.77
2018-03-08T03:18:26.435Z,3.20
2018-03-08T03:20:56.342Z,3.77
2018-03-08T03:23:27.116Z,3.60
2018-03-08T03:25:56.944Z,3.87
2018-03-08T03:28:27.249Z,3.73
2018-03-08T03:30:57.498Z,4.43
2018-03-08T03:33:27.543Z,4.30
2018-03-08T03:35:57.843Z,4.50
2018-03-08T03:38:28.274Z,5.10
2018-03-08T03:40:58.654Z,5.07
2018-03-08T03:43:29.486Z,5.30
2018-03-08T03:45:59.720Z,6.00
2018-03-08T03:48:29.593Z,6.07
2018-03-08T03:51:05.418Z,6.17
2018-03-08T03:53:36.268Z,6.77
2018-03-08T03:56:09.057Z,6.40
2018-03-08T03:58:39.403Z,6.30
2018-03-08T04:01:10.170Z,6.67
2018-03-08T04:03:40.035Z,7.77
2018-03-08T04:06:10.165Z,7.77
2018-03-08T04:08:40.154Z,8.30
2018-03-08T04:11:10.373Z,6.90
2018-03-08T04:13:40.531Z,8.20
2018-03-08T04:16:11.247Z,8.27
2018-03-08T04:18:41.191Z,9.33
2018-03-08T04:21:12.145Z,8.70
2018-03-08T04:23:42.486Z,8.37
2018-03-08T04:26:13.142Z,8.20
2018-03-08T04:28:42.910Z,9.37
2018-03-08T04:31:12.604Z,7.50
2018-03-08T04:33:42.701Z,7.97
2018-03-08T04:36:12.859Z,7.47
2018-03-08T04:38:42.850Z,7.00
2018-03-08T04:41:12.866Z,7.07
2018-03-08T04:43:43.008Z,7.60
2018-03-08T04:46:12.914Z,6.50
2018-03-08T04:48:43.070Z,7.00
2018-03-08T04:51:14.222Z,7.20
2018-03-08T04:53:45.339Z,7.20
2018-03-08T04:56:18.306Z,6.87
2018-03-08T04:58:50.032Z,7.23
2018-03-08T05:01:22.058Z,7.10
2018-03-08T05:03:55.033Z,7.10
2018-03-08T05:06:25.711Z,7.70
2018-03-08T05:09:06.320Z,7.63
2018-03-08T05:11:40.093Z,8.23
2018-03-08T05:14:10.707Z,7.30
2018-03-08T05:16:40.338Z,8.20
2018-03-08T05:19:10.885Z,8.00
2018-03-08T05:21:40.902Z,7.70
2018-03-08T05:24:11.389Z,8.07
2018-03-08T05:26:41.852Z,8.67
2018-03-08T05:29:12.160Z,8.17
2018-03-08T05:31:41.832Z,7.90
2018-03-08T05:34:11.981Z,7.90
2018-03-08T05:36:42.019Z,7.63
2018-03-08T05:39:12.165Z,8.13
2018-03-08T05:41:42.345Z,8.07
2018-03-08T05:44:12.918Z,7.50
2018-03-08T05:46:43.042Z,7.77
2018-03-08T05:49:13.480Z,8.30
2018-03-08T05:51:43.362Z,8.17
2018-03-08T05:55:15.619Z,7.93
2018-03-08T05:57:45.505Z,8.13
2018-03-08T06:00:16.754Z,8.40
2018-03-08T06:02:46.305Z,8.43
2018-03-08T06:05:16.307Z,7.63
2018-03-08T06:07:46.649Z,7.27
2018-03-08T06:10:16.947Z,7.70
2018-03-08T06:12:50.872Z,7.00
2018-03-08T06:15:21.517Z,7.27
2018-03-08T06:17:52.370Z,7.10
2018-03-08T06:20:24.177Z,7.10
2018-03-08T06:22:53.896Z,7.20
2018-03-08T06:25:25.052Z,8.20
2018-03-08T06:27:54.611Z,6.30
2018-03-08T06:30:24.299Z,7.20
2018-03-08T06:32:54.788Z,6.17
2018-03-08T06:35:24.229Z,6.60
2018-03-08T06:37:54.669Z,6.43
2018-03-08T06:40:24.433Z,6.63
2018-03-08T06:42:55.452Z,5.97
2018-03-08T06:45:25.813Z,6.57
2018-03-08T06:47:56.564Z,6.50
2018-03-08T06:50:29.164Z,5.90
2018-03-08T06:52:59.860Z,6.10
2018-03-08T06:55:29.759Z,6.73
2018-03-08T06:57:59.861Z,6.00
2018-03-08T07:00:29.829Z,6.37
2018-03-08T07:02:59.434Z,5.87
2018-03-08T07:05:28.995Z,5.67
2018-03-08T07:07:58.807Z,5.20
2018-03-08T07:10:30.284Z,4.70
2018-03-08T07:13:01.903Z,4.93
2018-03-08T07:15:32.417Z,4.43
2018-03-08T07:18:05.262Z,4.67
2018-03-08T07:20:35.768Z,4.27
2018-03-08T07:23:06.888Z,4.70
2018-03-08T07:25:36.751Z,4.10
2018-03-08T07:28:07.133Z,4.43
2018-03-08T07:30:36.839Z,3.77
2018-03-08T07:33:06.678Z,3.83
2018-03-08T07:35:37.194Z,3.97
2018-03-08T07:38:08.328Z,3.30
2018-03-08T07:40:38.541Z,3.53
2018-03-08T07:43:09.066Z,3.23
2018-03-08T07:45:38.680Z,2.73
2018-03-08T07:48:08.485Z,2.70
2018-03-08T07:50:38.215Z,3.03
2018-03-08T07:53:07.819Z,2.77
2018-03-08T07:55:39.073Z,3.20
2018-03-08T07:58:08.846Z,2.50
2018-03-08T08:00:38.338Z,3.30
2018-03-08T08:03:08.322Z,3.10
2018-03-08T08:05:57.324Z,3.00
2018-03-08T08:08:36.661Z,3.20
2018-03-08T08:11:06.747Z,2.60
2018-03-08T08:13:36.513Z,2.83
2018-03-08T08:16:06.175Z,2.80
2018-03-08T08:18:36.798Z,2.83
2018-03-08T08:21:06.290Z,2.53
2018-03-08T08:23:36.071Z,2.63
2018-03-08T08:26:07.800Z,2.47
2018-03-08T08:28:37.736Z,2.80
2018-03-08T08:31:07.656Z,2.27
2018-03-08T08:33:37.158Z,3.00
2018-03-08T08:36:06.745Z,3.13
2018-03-08T08:38:36.739Z,2.77
2018-03-08T08:41:06.371Z,2.80
2018-03-08T08:43:35.875Z,2.30
2018-03-08T08:46:07.472Z,2.60
2018-03-08T08:48:36.933Z,2.70
2018-03-08T08:51:06.644Z,2.80
2018-03-08T08:53:36.600Z,2.10
2018-03-08T08:56:07.534Z,2.63
2018-03-08T08:58:37.262Z,2.23
2018-03-08T09:01:07.660Z,2.90
2018-03-08T09:03:37.440Z,2.43
2018-03-08T09:06:07.591Z,3.13
2018-03-08T09:08:38.193Z,2.60
2018-03-08T09:11:07.851Z,3.20
2018-03-08T09:13:37.289Z,2.80
2018-03-08T09:16:07.421Z,2.70
2018-03-08T09:18:37.729Z,2.50
2018-03-08T09:21:07.805Z,2.67
2018-03-08T09:23:37.670Z,2.50
2018-03-08T09:26:07.309Z,2.50
2018-03-08T09:28:37.833Z,2.73
2018-03-08T09:31:08.134Z,2.60
2018-03-08T09:33:37.699Z,2.67
2018-03-08T09:36:07.118Z,3.23
2018-03-08T09:38:37.459Z,2.60
2018-03-08T09:41:07.199Z,2.53
2018-03-08T09:43:36.780Z,2.80
2018-03-08T09:46:08.858Z,2.73
2018-03-08T09:48:38.306Z,2.57
2018-03-08T09:51:07.770Z,2.30
2018-03-08T09:53:38.079Z,2.30
2018-03-08T09:56:08.441Z,2.30
2018-03-08T09:58:38.050Z,2.37
2018-03-08T10:01:07.960Z,2.80
2018-03-08T10:03:37.543Z,2.40
2018-03-08T10:06:07.494Z,2.53
2018-03-08T10:08:37.208Z,2.67
2018-03-08T10:11:06.726Z,2.80
2018-03-08T10:13:37.188Z,2.60
2018-03-08T10:16:06.972Z,3.10
2018-03-08T10:18:36.738Z,2.83
2018-03-08T10:21:06.523Z,2.73
2018-03-08T10:23:36.401Z,2.40
2018-03-08T10:26:06.512Z,2.80
2018-03-08T10:28:37.474Z,3.30
2018-03-08T10:31:07.745Z,2.80
2018-03-08T10:33:37.335Z,2.47
2018-03-08T10:36:08.438Z,3.13
2018-03-08T10:38:39.932Z,2.80
2018-03-08T10:41:09.721Z,2.73
2018-03-08T10:43:39.258Z,2.73
2018-03-08T10:46:09.724Z,2.47
2018-03-08T10:48:39.134Z,2.40
2018-03-08T10:51:08.992Z,2.33
2018-03-08T10:53:38.755Z,3.00
2018-03-08T10:56:08.760Z,3.33
2018-03-08T10:58:38.224Z,3.10
2018-03-08T11:01:08.395Z,3.57
2018-03-08T11:03:44.056Z,2.90
2018-03-08T11:06:18.468Z,2.87
2018-03-08T11:08:48.812Z,3.23
2018-03-08T11:11:18.810Z,2.77
2018-03-08T11:13:48.737Z,2.87
2018-03-08T11:16:18.938Z,3.03
2018-03-08T11:18:49.659Z,2.37
2018-03-08T11:21:21.343Z,2.53
2018-03-08T11:23:51.802Z,2.93
2018-03-08T11:29:11.633Z,2.60
2018-03-08T11:31:41.700Z,2.57
2018-03-08T11:34:11.593Z,2.90
2018-03-08T11:36:41.066Z,2.73
2018-03-08T11:39:11.950Z,3.10
2018-03-08T11:41:41.739Z,2.70
2018-03-08T11:44:11.410Z,4.53
2018-03-08T11:46:41.189Z,3.50
2018-03-08T11:49:10.899Z,2.83
2018-03-08T11:51:40.527Z,3.13
2018-03-08T11:54:14.038Z,2.83
2018-03-08T11:56:43.790Z,3.07
2018-03-08T11:59:13.266Z,2.83
2018-03-08T12:01:43.103Z,3.37
2018-03-08T12:04:15.874Z,2.80
2018-03-08T12:06:46.094Z,3.00
2018-03-08T12:09:19.706Z,3.87
2018-03-08T12:11:50.067Z,2.70
2018-03-08T12:14:21.806Z,2.40
2018-03-08T12:16:51.817Z,2.43
2018-03-08T12:19:21.641Z,3.03
2018-03-08T12:21:52.493Z,2.30
2018-03-08T12:24:24.143Z,2.63
2018-03-08T12:26:54.138Z,2.17
2018-03-08T12:29:23.802Z,2.30
2018-03-08T12:31:53.526Z,2.50
2018-03-08T12:34:23.128Z,2.30
2018-03-08T12:36:52.685Z,2.07
2018-03-08T12:39:22.532Z,2.10
2018-03-08T12:41:52.023Z,2.10
2018-03-08T12:44:21.702Z,1.80
2018-03-08T12:46:51.941Z,1.90
2018-03-08T12:49:21.651Z,1.57
2018-03-08T12:51:51.773Z,1.83
2018-03-08T12:54:21.603Z,2.53
2018-03-08T12:56:51.222Z,2.20
2018-03-08T12:59:21.213Z,2.03
2018-03-08T13:01:51.086Z,2.30
2018-03-08T13:04:21.006Z,1.73
2018-03-08T13:06:50.644Z,1.83
2018-03-08T13:09:20.283Z,2.27
2018-03-08T13:11:49.820Z,2.80
2018-03-08T13:14:20.759Z,2.07
2018-03-08T13:16:50.581Z,2.03
2018-03-08T13:19:20.295Z,1.77
2018-03-08T13:21:49.771Z,1.90
2018-03-08T13:24:19.357Z,2.03
2018-03-08T13:26:48.879Z,1.90
2018-03-08T13:29:18.902Z,3.00
2018-03-08T13:31:48.369Z,1.80
2018-03-08T13:34:18.205Z,2.60
2018-03-08T13:36:47.703Z,2.27
2018-03-08T13:39:17.139Z,2.10
2018-03-08T13:41:46.811Z,2.60
2018-03-08T13:44:16.286Z,2.60
2018-03-08T13:46:47.031Z,2.03
2018-03-08T13:49:26.225Z,2.37
2018-03-08T13:51:56.106Z,1.53
2018-03-08T13:54:26.318Z,1.33
2018-03-08T13:56:55.859Z,1.50
2018-03-08T13:59:25.473Z,1.50
2018-03-08T14:01:55.788Z,1.50
2018-03-08T14:04:25.297Z,1.50
2018-03-08T14:06:55.210Z,1.50
2018-03-08T14:09:25.155Z,1.63
2018-03-08T14:11:54.706Z,1.37
2018-03-08T14:14:24.625Z,1.27
2018-03-08T14:16:54.485Z,1.50
2018-03-08T14:19:24.328Z,1.50
2018-03-08T14:21:53.959Z,1.10
2018-03-08T14:24:23.663Z,1.20
2018-03-08T14:26:53.383Z,1.33
2018-03-08T14:29:23.315Z,1.50
2018-03-08T14:31:52.895Z,1.17
2018-03-08T14:34:22.411Z,1.20
2018-03-08T14:36:52.142Z,1.73
2018-03-08T14:39:21.678Z,1.33
2018-03-08T14:41:51.123Z,1.53
2018-03-08T14:44:21.503Z,1.27
2018-03-08T14:46:51.271Z,1.40
2018-03-08T14:49:21.528Z,1.50
2018-03-08T14:51:51.125Z,1.63
2018-03-08T14:54:21.226Z,1.50
2018-03-08T14:56:51.201Z,1.50
2018-03-08T14:59:21.812Z,1.73
2018-03-08T15:01:51.442Z,1.43
2018-03-08T15:04:22.037Z,1.60
2018-03-08T15:06:51.717Z,1.57
2018-03-08T15:09:21.807Z,1.30
2018-03-08T15:11:51.376Z,1.73
2018-03-08T15:14:21.466Z,1.47
2018-03-08T15:16:51.201Z,1.10
2018-03-08T15:19:20.866Z,1.67
2018-03-08T15:21:50.515Z,1.30
2018-03-08T15:24:20.384Z,1.30
